Terminal Aerodrome Forecast
Issued by NWS Sterling, VA

Current Version | Previous Version | Graphics & Text | Print | Product List | Glossary On
Versions: 1 2 3 4 5 6 7 8 9 10 11 12 13 14 15 16 17 18 19 20 21
000
FTUS41 KLWX 262057 AAA
TAFIAD
TAF AMD
KIAD 262057Z 2621/2724 22007KT P6SM FEW050 SCT080
     FM270800 VRB03KT P6SM SCT200
     FM271500 28007KT P6SM BKN110
     FM272300 29008KT P6SM SCT070=

USA.gov is the U.S. government's official web portal to all federal, state and local government web resources and services.